createdAt,value
2022-11-05T00:00:12.601Z,5.20
2022-11-05T00:03:18.384Z,3.30
2022-11-05T00:06:27.337Z,1.90
2022-11-05T00:09:29.659Z,1.88
2022-11-05T00:12:37.562Z,2.20
2022-11-05T00:15:43.136Z,1.92
2022-11-05T00:18:32.553Z,2.38
2022-11-05T00:21:38.760Z,2.00
2022-11-05T00:24:44.694Z,2.00
2022-11-05T00:27:34.292Z,1.67
2022-11-05T00:30:26.250Z,1.90
2022-11-05T00:33:13.564Z,1.85
2022-11-05T00:36:03.105Z,1.70
2022-11-05T00:38:50.294Z,1.50
2022-11-05T00:41:37.401Z,1.92
2022-11-05T00:44:43.437Z,1.80
2022-11-05T00:47:51.060Z,1.60
2022-11-05T00:50:38.195Z,1.83
2022-11-05T00:53:26.298Z,1.95
2022-11-05T00:56:13.383Z,2.00
2022-11-05T00:59:00.649Z,1.92
2022-11-05T01:01:50.081Z,1.80
2022-11-05T01:04:39.434Z,1.77
2022-11-05T01:07:26.532Z,1.73
2022-11-05T01:10:16.708Z,1.60
2022-11-05T01:13:05.664Z,1.60
2022-11-05T01:15:56.795Z,1.60
2022-11-05T01:18:44.035Z,1.90
2022-11-05T01:21:31.394Z,1.95
2022-11-05T01:24:20.667Z,2.00
2022-11-05T01:27:08.177Z,2.03
2022-11-05T01:29:55.250Z,2.03
2022-11-05T01:32:42.450Z,2.33
2022-11-05T01:35:31.904Z,2.92
2022-11-05T01:38:21.184Z,2.47
2022-11-05T01:41:08.532Z,2.33
2022-11-05T01:43:57.803Z,2.20
2022-11-05T01:46:46.558Z,1.98
2022-11-05T01:49:38.285Z,2.25
2022-11-05T01:52:26.839Z,2.40
2022-11-05T01:55:17.044Z,2.00
2022-11-05T01:58:07.607Z,1.85
2022-11-05T02:00:57.509Z,1.83
2022-11-05T02:03:48.432Z,1.63
2022-11-05T02:06:39.308Z,1.80
2022-11-05T02:09:41.295Z,2.05
2022-11-05T02:12:29.370Z,1.93
2022-11-05T02:15:22.094Z,1.80
2022-11-05T02:21:13.382Z,1.90
2022-11-05T02:25:08.117Z,1.90
2022-11-05T02:28:05.350Z,2.72
2022-11-05T02:30:59.362Z,1.77
2022-11-05T02:33:57.025Z,1.90
2022-11-05T02:36:58.081Z,1.90
2022-11-05T02:40:12.497Z,1.83
2022-11-05T02:43:16.186Z,1.90
2022-11-05T02:46:26.998Z,2.83
2022-11-05T02:49:32.982Z,2.30
2022-11-05T02:52:36.424Z,2.13
2022-11-05T02:55:34.141Z,2.08
2022-11-05T02:58:21.760Z,2.60
2022-11-05T03:01:12.530Z,2.40
2022-11-05T03:04:02.201Z,2.78
2022-11-05T03:06:55.293Z,2.90
2022-11-05T03:10:07.109Z,2.97
2022-11-05T03:13:09.586Z,2.95
2022-11-05T03:16:06.059Z,3.20
2022-11-05T03:19:17.296Z,3.13
2022-11-05T03:22:12.355Z,3.60
2022-11-05T03:25:05.782Z,3.53
2022-11-05T03:27:59.118Z,3.85
2022-11-05T03:30:47.685Z,3.47
2022-11-05T03:33:38.571Z,3.50
2022-11-05T03:36:32.077Z,3.33
2022-11-05T03:39:25.074Z,4.03
2022-11-05T03:42:16.809Z,4.18
2022-11-05T03:45:15.630Z,3.42
2022-11-05T03:48:06.609Z,3.35
2022-11-05T03:51:07.923Z,3.55
2022-11-05T03:54:01.194Z,3.30
2022-11-05T03:57:21.629Z,3.85
2022-11-05T04:00:10.790Z,3.92
2022-11-05T04:03:00.349Z,4.10
2022-11-05T04:06:10.711Z,4.28
2022-11-05T04:09:16.804Z,3.92
2022-11-05T04:12:22.607Z,4.55
2022-11-05T04:15:09.802Z,4.35
2022-11-05T04:18:01.523Z,4.55
2022-11-05T04:21:07.137Z,4.35
2022-11-05T04:24:09.544Z,4.45
2022-11-05T04:26:56.635Z,3.05
2022-11-05T04:30:04.446Z,3.60
2022-11-05T04:33:12.634Z,4.00
2022-11-05T04:36:00.342Z,4.70
2022-11-05T04:38:47.545Z,4.63
2022-11-05T04:41:34.630Z,5.57
2022-11-05T04:44:21.745Z,5.30
2022-11-05T04:47:11.357Z,5.57
2022-11-05T04:49:58.405Z,5.22
2022-11-05T04:52:45.520Z,5.07
2022-11-05T04:55:32.661Z,5.00
2022-11-05T04:58:21.943Z,5.05
2022-11-05T05:01:14.484Z,5.20
2022-11-05T05:04:01.613Z,6.07
2022-11-05T05:06:48.683Z,5.78
2022-11-05T05:09:35.724Z,6.30
2022-11-05T05:12:23.182Z,5.35
2022-11-05T05:15:10.313Z,4.70
2022-11-05T05:17:57.568Z,4.40
2022-11-05T05:21:03.148Z,3.63
2022-11-05T05:23:52.463Z,3.95
2022-11-05T05:26:42.555Z,4.05
2022-11-05T05:29:32.177Z,4.88
2022-11-05T05:32:21.475Z,5.30
2022-11-05T05:35:09.424Z,4.72
2022-11-05T05:37:56.843Z,5.28
2022-11-05T05:40:44.110Z,4.90
2022-11-05T05:43:32.897Z,5.50
2022-11-05T05:46:22.448Z,5.60
2022-11-05T05:49:13.691Z,5.28
2022-11-05T05:52:00.813Z,5.90
2022-11-05T05:54:50.258Z,6.05
2022-11-05T05:57:39.570Z,6.00
2022-11-05T06:00:26.610Z,5.93
2022-11-05T06:03:16.196Z,6.20
2022-11-05T06:06:04.155Z,6.55
2022-11-05T06:08:51.302Z,8.30
2022-11-05T06:11:40.568Z,6.70
2022-11-05T06:14:27.655Z,6.50
2022-11-05T06:17:14.747Z,6.40
2022-11-05T06:20:01.864Z,6.40
2022-11-05T06:22:59.165Z,5.95
2022-11-05T06:25:46.258Z,5.95
2022-11-05T06:28:33.883Z,6.13
2022-11-05T06:31:20.969Z,5.28
2022-11-05T06:34:08.060Z,6.20
2022-11-05T06:36:55.102Z,6.32
2022-11-05T06:44:01.838Z,6.47
2022-11-05T06:47:06.964Z,6.68
2022-11-05T06:49:54.145Z,6.53
2022-11-05T06:56:49.623Z,6.28
2022-11-05T06:59:37.637Z,5.18
2022-11-05T07:02:24.761Z,3.42
2022-11-05T07:05:12.312Z,3.17
2022-11-05T07:07:59.536Z,3.90
2022-11-05T07:10:49.551Z,3.63
2022-11-05T07:13:39.630Z,3.38
2022-11-05T07:16:27.072Z,3.92
2022-11-05T07:19:14.284Z,3.53
2022-11-05T07:22:01.360Z,3.80
2022-11-05T07:24:50.310Z,4.05
2022-11-05T07:27:43.690Z,5.80
2022-11-05T07:30:32.401Z,6.75
2022-11-05T07:33:19.462Z,8.15
2022-11-05T07:36:06.826Z,8.38
2022-11-05T07:38:58.951Z,8.30
2022-11-05T07:41:52.277Z,9.25
2022-11-05T07:44:39.354Z,9.63
2022-11-05T07:47:26.712Z,9.63
2022-11-05T07:50:14.820Z,9.40
2022-11-05T07:53:21.294Z,9.73
2022-11-05T07:56:08.780Z,9.70
2022-11-05T07:58:55.895Z,10.57
2022-11-05T08:01:43.218Z,13.40
2022-11-05T08:04:33.696Z,15.02
2022-11-05T08:07:23.588Z,16.77
2022-11-05T08:10:10.665Z,18.75
2022-11-05T08:13:08.179Z,19.92
2022-11-05T08:15:57.589Z,20.02
2022-11-05T08:18:46.983Z,20.42
2022-11-05T08:21:34.157Z,22.48
2022-11-05T08:24:21.577Z,19.88
2022-11-05T08:27:08.595Z,20.10
2022-11-05T08:29:55.659Z,17.23
2022-11-05T08:32:43.358Z,16.92
2022-11-05T08:35:31.051Z,15.25
2022-11-05T08:38:19.994Z,13.75
2022-11-05T08:41:07.524Z,13.02
2022-11-05T08:43:57.646Z,11.35
2022-11-05T08:46:44.979Z,11.27
2022-11-05T08:49:32.219Z,10.45
2022-11-05T08:52:19.338Z,9.32
2022-11-05T08:55:07.084Z,8.45
2022-11-05T08:57:58.735Z,7.40
2022-11-05T09:00:48.591Z,6.78
2022-11-05T09:03:36.439Z,6.63
2022-11-05T09:06:23.634Z,6.13
2022-11-05T09:09:11.138Z,5.93
2022-11-05T09:12:11.888Z,4.75
2022-11-05T09:14:59.983Z,4.03
2022-11-05T09:17:47.109Z,3.75
2022-11-05T09:20:34.340Z,3.42
2022-11-05T09:23:21.501Z,3.42
2022-11-05T09:26:10.181Z,3.80
2022-11-05T09:28:59.834Z,4.03
2022-11-05T09:31:46.891Z,4.30
2022-11-05T09:34:34.303Z,4.35
2022-11-05T09:37:22.000Z,4.40
2022-11-05T09:40:19.074Z,4.07
2022-11-05T09:43:28.809Z,4.13
2022-11-05T09:46:30.218Z,3.67
2022-11-05T09:50:04.584Z,4.00
2022-11-05T10:30:22.342Z,5.72
2022-11-05T10:33:15.659Z,5.57
2022-11-05T11:37:51.907Z,5.53
2022-11-05T11:43:33.473Z,6.07
2022-11-05T11:46:21.626Z,5.50
2022-11-05T11:49:49.131Z,5.10
2022-11-05T11:52:37.533Z,4.32
2022-11-05T11:55:25.339Z,4.50
2022-11-05T11:58:14.841Z,4.57
2022-11-05T12:01:38.701Z,4.80
2022-11-05T12:04:34.435Z,4.70
2022-11-05T12:07:37.509Z,4.13
2022-11-05T12:11:07.860Z,4.63
2022-11-05T12:14:16.147Z,4.55
2022-11-05T12:17:23.398Z,4.68
2022-11-05T12:20:13.496Z,4.00
2022-11-05T12:23:28.393Z,4.20
2022-11-05T12:26:51.826Z,4.00
2022-11-05T12:30:01.938Z,3.50
2022-11-05T12:33:01.033Z,3.42
2022-11-05T12:36:14.650Z,3.60
2022-11-05T12:39:43.805Z,3.97
2022-11-05T12:42:49.016Z,4.22
2022-11-05T12:46:01.627Z,4.25
2022-11-05T12:48:51.723Z,3.60
2022-11-05T12:52:11.215Z,4.10
2022-11-05T12:55:03.754Z,4.32
2022-11-05T12:57:54.682Z,4.70
2022-11-05T13:00:47.852Z,5.07
2022-11-05T13:03:53.457Z,5.35
2022-11-05T13:06:44.825Z,5.47
2022-11-05T13:09:39.783Z,6.03
2022-11-05T13:12:31.000Z,5.80
2022-11-05T13:15:32.181Z,6.43
2022-11-05T13:18:38.807Z,5.78
2022-11-05T13:21:30.116Z,5.47
2022-11-05T13:24:38.721Z,5.55
2022-11-05T13:28:12.730Z,6.05
2022-11-05T13:31:04.183Z,5.50
2022-11-05T13:33:53.037Z,6.70
2022-11-05T13:37:11.744Z,6.13
2022-11-05T13:40:07.580Z,5.78
2022-11-05T13:43:17.475Z,6.10
2022-11-05T13:46:33.357Z,5.90
2022-11-05T13:49:49.162Z,5.60
2022-11-05T13:56:07.754Z,6.05
2022-11-05T13:59:13.421Z,6.07
2022-11-05T14:03:28.347Z,6.18
2022-11-05T14:06:30.966Z,5.93
2022-11-05T14:09:28.647Z,6.88
2022-11-05T14:12:29.644Z,7.35
2022-11-05T14:15:28.837Z,7.53
2022-11-05T14:18:24.780Z,7.22
2022-11-05T14:21:27.296Z,8.20
2022-11-05T14:24:23.282Z,8.35
2022-11-05T14:27:13.540Z,7.15
2022-11-05T14:30:00.829Z,7.72
2022-11-05T14:32:50.494Z,7.97
2022-11-05T14:35:38.619Z,7.53
2022-11-05T14:38:29.285Z,7.30
2022-11-05T14:41:19.350Z,7.13
2022-11-05T14:44:07.994Z,7.70
2022-11-05T14:46:58.489Z,7.40
2022-11-05T14:49:55.329Z,8.20
2022-11-05T14:52:58.113Z,7.68
2022-11-05T14:55:56.667Z,7.85
2022-11-05T14:58:45.242Z,8.98
2022-11-05T15:01:32.476Z,8.88
2022-11-05T15:04:37.725Z,8.73
2022-11-05T15:07:33.629Z,8.80
2022-11-05T15:10:24.254Z,10.65
2022-11-05T15:13:33.113Z,8.90
2022-11-05T15:16:29.626Z,11.13
2022-11-05T15:19:33.230Z,8.77
2022-11-05T15:22:30.488Z,9.48
2022-11-05T15:25:45.041Z,8.20
2022-11-05T15:29:15.632Z,8.55
2022-11-05T15:32:04.424Z,7.90
2022-11-05T15:34:55.815Z,7.88
2022-11-05T15:37:53.383Z,9.57
2022-11-05T15:40:44.022Z,9.27
2022-11-05T15:43:32.496Z,9.05
2022-11-05T15:46:30.164Z,9.30
2022-11-05T15:49:20.294Z,8.95
2022-11-05T15:52:10.219Z,9.32
2022-11-05T15:55:08.029Z,9.68
2022-11-05T15:58:05.322Z,9.80
2022-11-05T16:00:52.731Z,10.32
2022-11-05T16:03:40.050Z,9.50
2022-11-05T16:06:39.609Z,10.23
2022-11-05T16:09:36.397Z,9.85
2022-11-05T16:12:37.065Z,11.20
2022-11-05T16:15:29.429Z,11.75
2022-11-05T16:18:26.018Z,14.52
2022-11-05T16:21:18.909Z,14.40
2022-11-05T16:24:19.518Z,11.60
2022-11-05T16:27:13.039Z,12.98
2022-11-05T16:30:02.520Z,13.90
2022-11-05T16:32:50.053Z,13.27
2022-11-05T16:35:41.904Z,14.73
2022-11-05T16:38:29.325Z,15.40
2022-11-05T16:41:21.591Z,14.77
2022-11-05T16:44:09.647Z,15.32
2022-11-05T16:46:57.599Z,14.60
2022-11-05T16:49:45.372Z,14.18
2022-11-05T16:52:32.574Z,13.55
2022-11-05T16:55:22.997Z,13.90
2022-11-05T16:58:25.226Z,12.93
2022-11-05T17:01:18.121Z,15.05
2022-11-05T17:04:05.657Z,14.70
2022-11-05T17:06:53.026Z,14.13
2022-11-05T17:09:43.204Z,19.17
2022-11-05T17:12:32.749Z,22.75
2022-11-05T17:15:20.371Z,21.65
2022-11-05T17:18:08.033Z,21.40
2022-11-05T17:20:56.223Z,20.23
2022-11-05T17:23:43.795Z,18.38
2022-11-05T17:26:34.477Z,16.52
2022-11-05T17:29:21.777Z,17.40
2022-11-05T17:32:09.011Z,19.75
2022-11-05T17:34:56.217Z,23.38
2022-11-05T17:37:43.722Z,25.45
2022-11-05T17:40:34.024Z,24.30
2022-11-05T17:43:21.380Z,25.67
2022-11-05T17:46:13.644Z,28.70
2022-11-05T17:49:00.960Z,29.30
2022-11-05T17:51:50.229Z,30.05
2022-11-05T17:54:37.568Z,27.42
2022-11-05T17:57:24.894Z,31.77
2022-11-05T18:00:13.682Z,33.15
2022-11-05T18:03:00.877Z,32.30
2022-11-05T18:05:49.314Z,34.63
2022-11-05T18:08:39.039Z,32.95
2022-11-05T18:11:26.318Z,34.85
2022-11-05T18:14:21.274Z,39.08
2022-11-05T18:17:11.464Z,38.55
2022-11-05T18:19:58.545Z,39.50
2022-11-05T18:22:46.297Z,36.67
2022-11-05T18:25:33.573Z,39.65
2022-11-05T18:28:23.574Z,45.05
2022-11-05T18:31:20.680Z,50.00
2022-11-05T18:34:10.387Z,38.45
2022-11-05T18:37:00.117Z,51.25
2022-11-05T18:39:53.800Z,52.22
2022-11-05T18:42:41.802Z,48.53
2022-11-05T18:45:30.047Z,55.75
2022-11-05T18:48:19.498Z,51.85
2022-11-05T18:51:16.047Z,49.17
2022-11-05T18:54:03.671Z,44.83
2022-11-05T18:56:52.939Z,44.47
2022-11-05T18:59:46.658Z,37.45
2022-11-05T19:02:36.500Z,38.17
2022-11-05T19:05:31.143Z,37.78
2022-11-05T19:08:18.438Z,38.53
2022-11-05T19:11:12.079Z,34.95
2022-11-05T19:13:59.451Z,39.88
2022-11-05T19:16:46.846Z,46.25
2022-11-05T19:19:35.347Z,40.95
2022-11-05T19:22:26.004Z,41.13
2022-11-05T19:25:13.246Z,38.08
2022-11-05T19:28:01.871Z,39.42
2022-11-05T19:30:48.991Z,39.20
2022-11-05T19:33:36.653Z,38.28
2022-11-05T19:36:25.315Z,42.03
2022-11-05T19:39:18.310Z,43.33
2022-11-05T19:42:06.040Z,43.65
2022-11-05T19:44:53.318Z,39.45
2022-11-05T19:47:42.589Z,41.33
2022-11-05T19:50:31.717Z,36.00
2022-11-05T19:53:21.597Z,34.30
2022-11-05T19:56:14.636Z,36.53
2022-11-05T19:59:03.394Z,37.45
2022-11-05T20:01:50.843Z,36.97
2022-11-05T20:04:40.538Z,38.80
2022-11-05T20:07:30.610Z,49.10
2022-11-05T20:10:17.829Z,50.80
2022-11-05T20:13:04.990Z,46.90
2022-11-05T20:15:52.221Z,43.90
2022-11-05T20:18:39.387Z,43.03
2022-11-05T20:21:28.865Z,38.70
2022-11-05T20:24:24.319Z,39.78
2022-11-05T20:27:12.578Z,41.05
2022-11-05T20:29:59.712Z,41.38
2022-11-05T20:32:47.096Z,38.92
2022-11-05T20:35:34.276Z,35.50
2022-11-05T20:38:21.553Z,35.70
2022-11-05T20:41:12.486Z,40.00
2022-11-05T20:43:59.854Z,37.72
2022-11-05T20:46:46.966Z,39.70
2022-11-05T20:49:35.427Z,38.47
2022-11-05T20:52:22.535Z,38.08
2022-11-05T20:55:11.485Z,38.53
2022-11-05T20:57:58.717Z,36.25
2022-11-05T21:00:54.641Z,35.17
2022-11-05T21:03:44.711Z,36.97
2022-11-05T21:06:33.698Z,34.75
2022-11-05T21:09:21.724Z,36.00
2022-11-05T21:12:11.776Z,36.40
2022-11-05T21:14:59.089Z,37.60
2022-11-05T21:17:46.532Z,34.20
2022-11-05T21:20:33.644Z,38.65
2022-11-05T21:23:23.507Z,36.22
2022-11-05T21:26:13.265Z,35.25
2022-11-05T21:29:00.890Z,35.33
2022-11-05T21:31:48.563Z,36.90
2022-11-05T21:34:35.787Z,45.28
2022-11-05T21:37:23.946Z,43.10
2022-11-05T21:40:11.906Z,40.95
2022-11-05T21:43:00.042Z,37.33
2022-11-05T21:45:47.170Z,37.15
2022-11-05T21:48:34.622Z,38.03
2022-11-05T21:51:40.631Z,38.75
2022-11-05T21:54:46.537Z,38.72
2022-11-05T21:57:52.953Z,39.35
2022-11-05T22:00:40.092Z,40.13
2022-11-05T22:03:27.638Z,39.38
2022-11-05T22:06:17.264Z,41.83
2022-11-05T22:09:06.956Z,41.17
2022-11-05T22:11:55.938Z,43.38
2022-11-05T22:14:50.757Z,40.90
2022-11-05T22:17:40.434Z,42.03
2022-11-05T22:20:31.109Z,42.40
2022-11-05T22:23:18.445Z,40.13
2022-11-05T22:26:05.749Z,41.08
2022-11-05T22:29:03.796Z,38.85
2022-11-05T22:31:51.097Z,39.88
2022-11-05T22:34:38.544Z,36.90
2022-11-05T22:37:28.141Z,39.00
2022-11-05T22:40:15.525Z,36.15
2022-11-05T22:43:02.908Z,38.05
2022-11-05T22:45:52.126Z,36.88
2022-11-05T22:48:40.223Z,38.15
2022-11-05T22:51:31.136Z,46.30
2022-11-05T22:54:23.096Z,45.53
2022-11-05T22:57:12.740Z,44.05
2022-11-05T22:59:59.940Z,43.92
2022-11-05T23:02:49.379Z,44.05
2022-11-05T23:05:38.773Z,44.33
2022-11-05T23:08:44.810Z,48.90
2022-11-05T23:11:40.688Z,46.00
2022-11-05T23:14:28.179Z,42.70
2022-11-05T23:17:34.138Z,45.50
2022-11-05T23:20:42.342Z,50.92
2022-11-05T23:23:48.051Z,45.78
2022-11-05T23:26:52.948Z,44.58
2022-11-05T23:29:42.742Z,43.65
2022-11-05T23:32:32.240Z,41.88
2022-11-05T23:35:43.152Z,40.67
2022-11-05T23:38:36.292Z,40.50
2022-11-05T23:41:44.933Z,42.00
2022-11-05T23:44:54.674Z,37.53
2022-11-05T23:48:02.685Z,40.28
2022-11-05T23:51:08.518Z,38.15
2022-11-05T23:53:58.972Z,40.10
2022-11-05T23:56:48.231Z,38.60
2022-11-05T23:59:38.378Z,37.85
